Lindsay, Nebraska
Current Conditions -  °F | °C
As of 2:55 AM on Sunday 23 Nov 2014 (Local Time) from KBVN Reporting Station
Moderate Fog Moderate Fog  
Wind Chill: 45°   Ceiling: 500
Heat Index: 45°   Visibility: 0.5mi
Dew Point: 43°   Wind: 3mph
Humidity: 91%   Direction: 160°SSE
Pressure: 29.44"   Gusts: NA
Location:  41.7°N, 97.69°W
Report Text: KBVN 230855Z AUTO 16003KT 1/2SM FG VV005 07/06 A2944 RMK AO2 T00720059
Loading
Personal Weather Stations






























Interactive Weather Map New forecast layout! Learn more

10-Day Weather Forecast

Advertisements
Track Severe Weather on mobile